createdAt,value
2023-01-02T00:00:49.492Z,98436.00
2023-01-02T00:03:17.200Z,98433.19
2023-01-02T00:05:45.466Z,98445.63
2023-01-02T00:08:12.957Z,98464.06
2023-01-02T00:10:40.568Z,98480.03
2023-01-02T00:13:08.108Z,98489.13
2023-01-02T00:15:35.859Z,98482.94
2023-01-02T00:18:05.509Z,98490.47
2023-01-02T00:20:34.478Z,98504.72
2023-01-02T00:23:04.489Z,98511.53
2023-01-02T00:25:35.147Z,98506.81
2023-01-02T00:28:02.835Z,98511.81
2023-01-02T00:30:35.991Z,98526.19
2023-01-02T00:33:07.337Z,98531.34
2023-01-02T00:35:37.969Z,98522.66
2023-01-02T00:38:06.023Z,98536.78
2023-01-02T00:40:34.138Z,98550.97
2023-01-02T00:43:02.397Z,98547.50
2023-01-02T00:45:30.059Z,98558.47
2023-01-02T00:47:57.675Z,98577.63
2023-01-02T00:50:25.131Z,98579.97
2023-01-02T00:52:52.677Z,98593.22
2023-01-02T00:55:20.181Z,98590.34
2023-01-02T00:57:47.728Z,98596.97
2023-01-02T01:00:21.667Z,98597.16
2023-01-02T01:02:56.204Z,98605.59
2023-01-02T01:05:28.086Z,98618.19
2023-01-02T01:07:56.711Z,98621.19
2023-01-02T01:10:26.127Z,98625.47
2023-01-02T01:12:53.631Z,98635.53
2023-01-02T01:15:21.320Z,98654.94
2023-01-02T01:17:48.874Z,98643.59
2023-01-02T01:20:16.465Z,98653.44
2023-01-02T01:22:43.997Z,98662.59
2023-01-02T01:25:11.586Z,98658.91
2023-01-02T01:27:40.022Z,98668.13
2023-01-02T01:30:08.355Z,98657.84
2023-01-02T01:32:36.862Z,98657.50
2023-01-02T01:35:04.746Z,98655.97
2023-01-02T01:37:32.395Z,98672.22
2023-01-02T01:39:59.869Z,98679.97
2023-01-02T01:42:33.567Z,98690.84
2023-01-02T01:45:01.556Z,98695.78
2023-01-02T01:47:52.555Z,98717.25
2023-01-02T01:50:32.546Z,98720.09
2023-01-02T01:53:14.024Z,98716.53
2023-01-02T01:55:47.469Z,98721.28
2023-01-02T01:58:19.854Z,98736.59
2023-01-02T02:00:48.856Z,98736.25
2023-01-02T02:03:20.597Z,98741.44
2023-01-02T02:05:49.056Z,98746.53
2023-01-02T02:08:26.091Z,98754.28
2023-01-02T02:10:55.072Z,98759.25
2023-01-02T02:13:23.411Z,98762.56
2023-01-02T02:16:06.567Z,98772.72
2023-01-02T02:18:36.805Z,98781.56
2023-01-02T02:21:07.158Z,98788.16
2023-01-02T02:23:52.615Z,98796.75
2023-01-02T02:26:20.105Z,98813.56
2023-01-02T02:29:41.006Z,98802.25
2023-01-02T02:32:27.785Z,98828.31
2023-01-02T02:35:19.460Z,98833.50
2023-01-02T02:37:55.268Z,98834.81
2023-01-02T02:41:06.925Z,98822.72
2023-01-02T02:43:58.434Z,98846.78
2023-01-02T02:46:43.285Z,98841.53
2023-01-02T02:49:24.636Z,98859.31
2023-01-02T02:52:12.493Z,98872.94
2023-01-02T02:54:46.435Z,98873.44
2023-01-02T02:57:15.295Z,98880.09
2023-01-02T02:59:43.522Z,98891.00
2023-01-02T03:02:16.515Z,98893.16
2023-01-02T03:04:58.241Z,98900.28
2023-01-02T03:08:32.831Z,98898.19
2023-01-02T03:11:03.023Z,98911.09
2023-01-02T03:14:07.391Z,98919.56
2023-01-02T03:16:43.638Z,98914.13
2023-01-02T03:19:20.573Z,98923.81
2023-01-02T03:21:53.874Z,98928.75
2023-01-02T03:24:24.054Z,98947.72
2023-01-02T03:26:59.217Z,98943.22
2023-01-02T03:29:35.184Z,98959.72
2023-01-02T03:32:08.977Z,98958.34
2023-01-02T03:34:40.185Z,98964.97
2023-01-02T03:37:12.301Z,98985.00
2023-01-02T03:39:45.329Z,98987.13
2023-01-02T03:42:17.917Z,98997.22
2023-01-02T03:44:56.116Z,98993.56
2023-01-02T03:47:33.987Z,99005.38
2023-01-02T03:50:07.234Z,99019.56
2023-01-02T03:52:34.819Z,99024.91
2023-01-02T03:55:03.869Z,99021.28
2023-01-02T03:57:39.307Z,99035.44
2023-01-02T04:00:16.582Z,99036.50
2023-01-02T04:03:02.983Z,99035.28
2023-01-02T04:05:51.968Z,99037.97
2023-01-02T04:08:19.409Z,99032.25
2023-01-02T04:10:56.312Z,99036.09
2023-01-02T04:13:51.348Z,99054.56
2023-01-02T04:16:22.759Z,99049.31
2023-01-02T04:19:22.897Z,99067.69
2023-01-02T04:21:55.664Z,99068.03
2023-01-02T04:24:29.467Z,99064.84
2023-01-02T04:27:03.746Z,99064.63
2023-01-02T04:29:31.896Z,99068.53
2023-01-02T04:32:12.137Z,99071.44
2023-01-02T04:34:45.235Z,99064.94
2023-01-02T04:37:27.990Z,99071.84
2023-01-02T04:39:59.869Z,99076.38
2023-01-02T04:42:27.448Z,99088.06
2023-01-02T04:44:54.927Z,99095.50
2023-01-02T04:47:22.451Z,99109.91
2023-01-02T04:49:49.931Z,99109.75
2023-01-02T04:52:17.491Z,99123.84
2023-01-02T04:54:45.548Z,99120.88
2023-01-02T04:57:13.139Z,99119.03
2023-01-02T04:59:40.581Z,99146.91
2023-01-02T05:02:08.137Z,99133.06
2023-01-02T05:04:35.687Z,99154.19
2023-01-02T05:07:04.130Z,99147.38
2023-01-02T05:09:31.703Z,99153.81
2023-01-02T05:11:59.245Z,99154.50
2023-01-02T05:14:26.802Z,99159.72
2023-01-02T05:16:54.412Z,99164.88
2023-01-02T05:19:21.841Z,99173.41
2023-01-02T05:22:07.935Z,99193.50
2023-01-02T05:24:35.541Z,99197.78
2023-01-02T05:27:02.971Z,99207.50
2023-01-02T05:29:31.728Z,99224.25
2023-01-02T05:31:59.331Z,99208.09
2023-01-02T05:34:26.770Z,99212.00
2023-01-02T05:36:54.437Z,99211.69
2023-01-02T05:39:21.863Z,99220.28
2023-01-02T05:41:49.383Z,99220.06
2023-01-02T05:44:16.866Z,99231.84
2023-01-02T05:46:45.043Z,99245.47
2023-01-02T05:49:13.176Z,99252.09
2023-01-02T05:51:40.780Z,99240.22
2023-01-02T05:54:09.120Z,99250.72
2023-01-02T05:56:36.626Z,99244.88
2023-01-02T05:59:07.555Z,99251.78
2023-01-02T06:01:36.108Z,99267.75
2023-01-02T06:04:03.927Z,99265.81
2023-01-02T06:06:38.046Z,99280.31
2023-01-02T06:09:08.956Z,99284.09
2023-01-02T06:11:37.176Z,99287.41
2023-01-02T06:14:04.913Z,99300.16
2023-01-02T06:16:32.619Z,99299.38
2023-01-02T06:19:00.304Z,99306.09
2023-01-02T06:21:27.884Z,99308.63
2023-01-02T06:23:57.464Z,99318.97
2023-01-02T06:26:32.712Z,99325.16
2023-01-02T06:29:03.450Z,99321.66
2023-01-02T06:31:33.560Z,99327.50
2023-01-02T06:34:02.774Z,99332.38
2023-01-02T06:36:33.408Z,99349.41
2023-01-02T06:39:01.345Z,99348.53
2023-01-02T06:41:28.826Z,99353.91
2023-01-02T06:44:01.540Z,99363.25
2023-01-02T06:46:29.074Z,99373.56
2023-01-02T06:48:58.837Z,99374.34
2023-01-02T06:51:26.389Z,99378.06
2023-01-02T06:53:53.986Z,99379.91
2023-01-02T06:56:22.904Z,99388.47
2023-01-02T06:58:50.399Z,99382.72
2023-01-02T07:01:20.702Z,99394.69
2023-01-02T07:03:49.012Z,99402.19
2023-01-02T07:06:20.286Z,99385.44
2023-01-02T07:08:48.410Z,99405.22
2023-01-02T07:11:22.270Z,99407.91
2023-01-02T07:13:52.873Z,99400.78
2023-01-02T07:16:23.050Z,99414.66
2023-01-02T07:18:54.083Z,99414.81
2023-01-02T07:21:22.160Z,99435.66
2023-01-02T07:23:49.658Z,99424.91
2023-01-02T07:26:18.050Z,99426.47
2023-01-02T07:28:45.934Z,99428.50
2023-01-02T07:31:16.462Z,99432.34
2023-01-02T07:33:44.838Z,99445.84
2023-01-02T07:36:16.926Z,99450.50
2023-01-02T07:38:45.151Z,99451.72
2023-01-02T07:41:15.609Z,99444.69
2023-01-02T07:43:44.985Z,99442.09
2023-01-02T07:46:14.755Z,99446.88
2023-01-02T07:48:42.255Z,99449.63
2023-01-02T07:51:10.808Z,99442.84
2023-01-02T07:53:39.249Z,99436.63
2023-01-02T07:56:07.452Z,99447.94
2023-01-02T07:58:35.047Z,99432.28
2023-01-02T08:01:07.980Z,99442.03
2023-01-02T08:03:36.369Z,99447.44
2023-01-02T08:06:15.153Z,99448.88
2023-01-02T08:08:43.065Z,99456.16
2023-01-02T08:11:15.950Z,99453.06
2023-01-02T08:13:44.599Z,99464.94
2023-01-02T08:16:30.015Z,99472.44
2023-01-02T08:18:57.621Z,99465.13
2023-01-02T08:21:26.636Z,99477.63
2023-01-02T08:23:54.595Z,99470.50
2023-01-02T08:26:23.413Z,99469.38
2023-01-02T08:28:51.308Z,99483.03
2023-01-02T08:31:21.378Z,99476.00
2023-01-02T08:33:50.237Z,99485.47
2023-01-02T08:36:19.279Z,99489.41
2023-01-02T08:38:46.872Z,99467.19
2023-01-02T08:41:15.419Z,99481.31
2023-01-02T08:43:43.001Z,99471.97
2023-01-02T08:46:10.702Z,99479.94
2023-01-02T08:48:40.909Z,99480.97
2023-01-02T08:51:08.631Z,99480.94
2023-01-02T08:53:36.116Z,99495.22
2023-01-02T08:56:25.811Z,99496.84
2023-01-02T08:58:58.596Z,99487.63
2023-01-02T09:01:28.395Z,99504.38
2023-01-02T09:03:56.684Z,99488.31
2023-01-02T09:06:26.612Z,99503.66
2023-01-02T09:08:57.298Z,99496.53
2023-01-02T09:11:31.332Z,99500.19
2023-01-02T09:14:00.718Z,99515.69
2023-01-02T09:16:28.937Z,99523.25
2023-01-02T09:18:59.055Z,99527.13
2023-01-02T09:21:27.222Z,99519.97
2023-01-02T09:23:54.730Z,99536.72
2023-01-02T09:26:22.309Z,99540.19
2023-01-02T09:28:49.756Z,99535.69
2023-01-02T09:31:18.827Z,99540.59
2023-01-02T09:33:47.552Z,99549.59
2023-01-02T09:36:19.792Z,99561.19
2023-01-02T09:38:54.722Z,99560.75
2023-01-02T09:41:22.233Z,99573.59
2023-01-02T09:44:08.141Z,99577.06
2023-01-02T09:46:40.117Z,99578.09
2023-01-02T09:49:15.760Z,99569.31
2023-01-02T09:51:43.864Z,99574.47
2023-01-02T09:54:23.309Z,99574.72
2023-01-02T09:57:09.555Z,99584.78
2023-01-02T09:59:48.362Z,99583.72
2023-01-02T10:02:49.768Z,99592.44
2023-01-02T10:05:42.109Z,99600.19
2023-01-02T10:08:13.414Z,99601.16
2023-01-02T10:10:43.342Z,99591.38
2023-01-02T10:13:59.828Z,99590.22
2023-01-02T10:16:22.246Z,99603.09
2023-01-02T10:18:52.927Z,99591.38
2023-01-02T10:21:27.174Z,99603.31
2023-01-02T10:24:04.190Z,99605.44
2023-01-02T10:26:36.160Z,99615.28
2023-01-02T10:29:16.535Z,99625.00
2023-01-02T10:31:50.397Z,99632.53
2023-01-02T10:34:20.504Z,99629.50
2023-01-02T10:36:48.805Z,99648.53
2023-01-02T10:39:17.953Z,99644.59
2023-01-02T10:41:50.294Z,99648.47
2023-01-02T10:44:26.815Z,99655.44
2023-01-02T10:46:55.963Z,99660.97
2023-01-02T10:49:25.860Z,99656.94
2023-01-02T10:52:18.158Z,99661.53
2023-01-02T10:55:00.164Z,99657.59
2023-01-02T10:57:51.601Z,99666.00
2023-01-02T11:00:25.517Z,99683.13
2023-01-02T11:03:01.115Z,99677.84
2023-01-02T11:05:31.405Z,99688.13
2023-01-02T11:07:59.571Z,99693.88
2023-01-02T11:10:33.922Z,99711.50
2023-01-02T11:13:10.666Z,99697.28
2023-01-02T11:15:56.628Z,99718.09
2023-01-02T11:18:31.033Z,99728.59
2023-01-02T11:21:04.522Z,99738.41
2023-01-02T11:23:45.008Z,99755.91
2023-01-02T11:26:20.529Z,99761.31
2023-01-02T11:28:51.332Z,99767.03
2023-01-02T11:31:19.923Z,99757.16
2023-01-02T11:33:47.903Z,99763.09
2023-01-02T11:36:17.084Z,99769.91
2023-01-02T11:39:24.391Z,99769.56
2023-01-02T11:42:35.253Z,99761.22
2023-01-02T11:45:18.598Z,99769.91
2023-01-02T11:47:52.097Z,99766.06
2023-01-02T11:50:26.668Z,99777.19
2023-01-02T11:53:12.287Z,99775.19
2023-01-02T11:55:42.676Z,99775.84
2023-01-02T11:58:28.349Z,99778.94
2023-01-02T12:01:04.240Z,99773.88
2023-01-02T12:03:33.370Z,99787.41
2023-01-02T12:06:33.351Z,99784.09
2023-01-02T12:09:11.840Z,99790.16
2023-01-02T12:12:04.013Z,99799.88
2023-01-02T12:14:57.751Z,99809.78
2023-01-02T12:17:51.354Z,99802.41
2023-01-02T12:20:27.391Z,99811.53
2023-01-02T12:23:09.694Z,99815.06
2023-01-02T12:26:09.078Z,99817.94
2023-01-02T12:29:11.036Z,99818.28
2023-01-02T12:31:53.543Z,99820.34
2023-01-02T12:34:40.138Z,99831.16
2023-01-02T12:37:07.627Z,99840.25
2023-01-02T12:39:50.267Z,99842.78
2023-01-02T12:42:46.374Z,99848.31
2023-01-02T12:45:39.734Z,99829.16
2023-01-02T12:48:17.385Z,99844.56
2023-01-02T12:50:56.693Z,99849.16
2023-01-02T12:53:37.441Z,99848.06
2023-01-02T12:56:24.215Z,99861.50
2023-01-02T12:59:48.685Z,99858.41
2023-01-02T13:02:54.818Z,99863.78
2023-01-02T13:05:32.752Z,99863.41
2023-01-02T13:08:15.117Z,99886.59
2023-01-02T13:10:43.263Z,99885.47
2023-01-02T13:13:12.261Z,99878.41
2023-01-02T13:15:44.041Z,99872.78
2023-01-02T13:18:11.599Z,99883.88
2023-01-02T13:21:12.934Z,99881.72
2023-01-02T13:23:49.291Z,99880.13
2023-01-02T13:26:20.759Z,99877.38
2023-01-02T13:28:55.780Z,99879.13
2023-01-02T13:34:32.229Z,99881.19
2023-01-02T13:37:13.426Z,99882.59
2023-01-02T13:39:40.901Z,99893.22
2023-01-02T13:42:38.375Z,99905.88
2023-01-02T13:45:29.592Z,99907.00
2023-01-02T13:48:05.566Z,99900.88
2023-01-02T13:50:35.705Z,99923.25
2023-01-02T13:53:12.249Z,99914.00
2023-01-02T13:55:39.775Z,99915.28
2023-01-02T13:58:13.952Z,99917.94
2023-01-02T14:01:23.268Z,99913.13
2023-01-02T14:04:19.326Z,99911.38
2023-01-02T14:06:53.862Z,99907.97
2023-01-02T14:09:25.447Z,99911.50
2023-01-02T14:11:57.732Z,99917.59
2023-01-02T14:14:25.327Z,99913.28
2023-01-02T14:17:03.139Z,99904.56
2023-01-02T14:19:31.161Z,99924.91
2023-01-02T14:21:58.592Z,99922.03
2023-01-02T14:24:38.528Z,99935.28
2023-01-02T14:27:18.082Z,99919.50
2023-01-02T14:29:52.912Z,99923.03
2023-01-02T14:32:37.320Z,99934.78
2023-01-02T14:35:22.171Z,99921.63
2023-01-02T14:37:53.317Z,99924.69
2023-01-02T14:40:23.836Z,99938.09
2023-01-02T14:43:17.470Z,99945.13
2023-01-02T14:45:52.977Z,99950.63
2023-01-02T14:48:30.744Z,99947.72
2023-01-02T14:51:04.376Z,99945.19
2023-01-02T14:53:37.373Z,99937.59
2023-01-02T14:56:12.901Z,99947.72
2023-01-02T14:58:42.162Z,99941.66
2023-01-02T15:01:15.255Z,99936.22
2023-01-02T15:04:39.051Z,99956.28
2023-01-02T15:07:30.819Z,99959.69
2023-01-02T15:10:14.919Z,99955.28
2023-01-02T15:13:06.257Z,99968.03
2023-01-02T15:16:02.338Z,99972.59
2023-01-02T15:18:33.641Z,99965.91
2023-01-02T15:21:24.663Z,99978.53
2023-01-02T15:23:53.818Z,99977.81
2023-01-02T15:26:34.731Z,99996.84
2023-01-02T15:29:05.620Z,99992.31
2023-01-02T15:31:33.820Z,99995.50
2023-01-02T15:34:01.457Z,99991.72
2023-01-02T15:36:33.285Z,99992.59
2023-01-02T15:39:22.646Z,99986.38
2023-01-02T15:41:57.487Z,99983.91
2023-01-02T15:44:46.529Z,99991.72
2023-01-02T15:47:15.240Z,99981.72
2023-01-02T15:49:45.140Z,99982.38
2023-01-02T15:52:24.102Z,99985.91
2023-01-02T15:54:53.444Z,99981.88
2023-01-02T15:57:27.875Z,99990.34
2023-01-02T15:59:56.054Z,99994.38
2023-01-02T16:02:42.653Z,99987.03
2023-01-02T16:05:15.807Z,99988.06
2023-01-02T16:07:49.922Z,99987.97
2023-01-02T16:10:21.242Z,99995.41
2023-01-02T16:12:56.068Z,99993.38
2023-01-02T16:15:30.972Z,100007.94
2023-01-02T16:17:58.629Z,99993.28
2023-01-02T16:20:28.072Z,100004.03
2023-01-02T16:23:19.030Z,100008.81
2023-01-02T16:25:50.011Z,100008.44
2023-01-02T16:28:35.410Z,100016.25
2023-01-02T16:31:14.593Z,100010.47
2023-01-02T16:33:43.467Z,100018.78
2023-01-02T16:36:21.609Z,100005.25
2023-01-02T16:38:55.081Z,100011.94
2023-01-02T16:41:36.565Z,100029.03
2023-01-02T16:44:14.514Z,100025.34
2023-01-02T16:46:44.351Z,100020.81
2023-01-02T16:49:18.176Z,100021.81
2023-01-02T16:51:48.201Z,100034.22
2023-01-02T16:54:17.623Z,100029.91
2023-01-02T16:56:45.593Z,100029.91
2023-01-02T16:59:13.023Z,100035.09
2023-01-02T17:01:40.713Z,100035.72
2023-01-02T17:04:08.258Z,100029.41
2023-01-02T17:06:36.029Z,100024.38
2023-01-02T17:09:03.773Z,100009.94
2023-01-02T17:11:31.394Z,100025.25
2023-01-02T17:14:01.135Z,100007.94
2023-01-02T17:16:28.960Z,100018.94
2023-01-02T17:18:56.455Z,100020.97
2023-01-02T17:21:27.732Z,100020.03
2023-01-02T17:23:58.448Z,100015.00
2023-01-02T17:26:26.005Z,100010.59
2023-01-02T17:28:53.524Z,100004.16
2023-01-02T17:31:25.551Z,100003.13
2023-01-02T17:33:56.042Z,100006.19
2023-01-02T17:36:23.547Z,100004.16
2023-01-02T17:38:51.018Z,100007.44
2023-01-02T17:41:18.734Z,99998.59
2023-01-02T17:44:01.962Z,99996.06
2023-01-02T17:47:09.351Z,100000.13
2023-01-02T17:49:21.166Z,99997.47
2023-01-02T17:51:48.922Z,99993.31
2023-01-02T17:54:16.927Z,99998.34
2023-01-02T17:56:44.523Z,100016.03
2023-01-02T17:59:14.071Z,100011.84
2023-01-02T18:01:41.700Z,100003.28
2023-01-02T18:04:09.248Z,99995.31
2023-01-02T18:06:36.921Z,100012.22
2023-01-02T18:09:05.383Z,99991.31
2023-01-02T18:11:33.072Z,99999.25
2023-01-02T18:14:02.381Z,100003.00
2023-01-02T18:16:38.519Z,99990.91
2023-01-02T18:19:27.842Z,100004.16
2023-01-02T18:21:55.725Z,100008.69
2023-01-02T18:24:32.461Z,100011.09
2023-01-02T18:27:10.919Z,99995.19
2023-01-02T18:29:38.945Z,100005.94
2023-01-02T18:32:16.640Z,99999.13
2023-01-02T18:34:48.571Z,100012.75
2023-01-02T18:37:28.801Z,100005.94
2023-01-02T18:39:57.491Z,100013.50
2023-01-02T18:42:32.253Z,99999.13
2023-01-02T18:45:12.245Z,100008.97
2023-01-02T18:47:43.427Z,100008.44
2023-01-02T18:50:19.815Z,100010.22
2023-01-02T18:52:51.977Z,99994.72
2023-01-02T18:55:27.658Z,99994.06
2023-01-02T18:58:09.586Z,100003.66
2023-01-02T19:00:39.706Z,99994.94
2023-01-02T19:03:07.835Z,99998.59
2023-01-02T19:05:39.892Z,99998.13
2023-01-02T19:08:12.856Z,99991.53
2023-01-02T19:10:44.932Z,100005.03
2023-01-02T19:13:25.805Z,100003.28
2023-01-02T19:15:58.927Z,100010.22
2023-01-02T19:18:36.416Z,100006.56
2023-01-02T19:21:09.913Z,100006.69
2023-01-02T19:23:56.642Z,100004.19
2023-01-02T19:26:24.138Z,100008.59
2023-01-02T19:29:28.011Z,100024.38
2023-01-02T19:32:15.276Z,100020.84
2023-01-02T19:34:47.111Z,100011.22
2023-01-02T19:37:29.995Z,100007.06
2023-01-02T19:40:00.264Z,100014.28
2023-01-02T19:42:29.803Z,100008.06
2023-01-02T19:44:58.805Z,100008.34
2023-01-02T19:47:32.437Z,100011.75
2023-01-02T19:50:01.173Z,100007.44
2023-01-02T19:52:29.987Z,100011.47
2023-01-02T19:54:58.077Z,100002.53
2023-01-02T19:57:26.577Z,100008.19
2023-01-02T19:59:59.080Z,100014.28
2023-01-02T20:02:28.062Z,100014.00
2023-01-02T20:04:56.200Z,100020.81
2023-01-02T20:07:25.483Z,100033.59
2023-01-02T20:09:53.625Z,100032.69
2023-01-02T20:12:30.681Z,100032.03
2023-01-02T20:15:15.019Z,100040.25
2023-01-02T20:17:45.480Z,100040.13
2023-01-02T20:20:20.997Z,100042.53
2023-01-02T20:22:51.699Z,100029.78
2023-01-02T20:25:24.106Z,100046.81
2023-01-02T20:27:53.996Z,100048.59
2023-01-02T20:30:24.602Z,100038.75
2023-01-02T20:32:53.666Z,100042.03
2023-01-02T20:35:21.706Z,100054.91
2023-01-02T20:37:49.278Z,100067.94
2023-01-02T20:40:16.832Z,100064.88
2023-01-02T20:42:44.388Z,100052.25
2023-01-02T20:45:12.389Z,100037.88
2023-01-02T20:47:39.923Z,100038.09
2023-01-02T20:50:08.004Z,100042.56
2023-01-02T20:52:35.477Z,100039.50
2023-01-02T20:55:03.091Z,100045.06
2023-01-02T20:57:30.999Z,100040.25
2023-01-02T20:59:58.785Z,100035.59
2023-01-02T21:02:26.304Z,100033.44
2023-01-02T21:04:54.038Z,100032.44
2023-01-02T21:07:21.877Z,100028.91
2023-01-02T21:09:49.394Z,100026.00
2023-01-02T21:12:35.598Z,100021.84
2023-01-02T21:15:03.234Z,100034.34
2023-01-02T21:17:30.860Z,100019.28
2023-01-02T21:19:58.384Z,100027.72
2023-01-02T21:22:25.826Z,100029.00
2023-01-02T21:24:53.379Z,100023.41
2023-01-02T21:27:20.856Z,100019.13
2023-01-02T21:29:48.396Z,100020.00
2023-01-02T21:32:15.891Z,100023.53
2023-01-02T21:34:43.577Z,100027.06
2023-01-02T21:37:11.055Z,100017.22
2023-01-02T21:39:38.606Z,100016.44
2023-01-02T21:42:18.450Z,100008.75
2023-01-02T21:44:49.823Z,100005.94
2023-01-02T21:47:18.061Z,100007.81
2023-01-02T21:49:45.736Z,99998.44
2023-01-02T21:52:13.275Z,100003.50
2023-01-02T21:54:40.853Z,99994.91
2023-01-02T21:57:09.045Z,99998.19
2023-01-02T21:59:37.211Z,99989.47
2023-01-02T22:02:06.799Z,99980.22
2023-01-02T22:04:35.289Z,99993.88
2023-01-02T22:09:51.392Z,99984.03
2023-01-02T22:12:19.718Z,99970.13
2023-01-02T22:14:47.286Z,99967.81
2023-01-02T22:17:14.835Z,99968.81
2023-01-02T22:19:42.358Z,99967.91
2023-01-02T22:22:10.576Z,99956.16
2023-01-02T22:24:44.167Z,99959.72
2023-01-02T22:27:14.725Z,99956.28
2023-01-02T22:30:19.554Z,99952.47
2023-01-02T22:32:33.712Z,99950.34
2023-01-02T22:35:06.019Z,99960.81
2023-01-02T22:37:33.686Z,99954.66
2023-01-02T22:40:02.204Z,99953.47
2023-01-02T22:43:02.653Z,99952.56
2023-01-02T22:45:36.923Z,99937.19
2023-01-02T22:48:07.640Z,99944.75
2023-01-02T22:50:43.882Z,99948.66
2023-01-02T22:53:38.517Z,99954.63
2023-01-02T22:56:15.564Z,99940.13
2023-01-02T22:58:43.324Z,99936.34
2023-01-02T23:01:25.660Z,99923.59
2023-01-02T23:03:53.736Z,99926.69
2023-01-02T23:06:22.392Z,99917.25
2023-01-02T23:08:51.632Z,99919.41
2023-01-02T23:11:20.433Z,99918.63
2023-01-02T23:13:54.576Z,99911.50
2023-01-02T23:16:42.790Z,99907.06
2023-01-02T23:19:18.633Z,99904.00
2023-01-02T23:21:49.785Z,99898.69
2023-01-02T23:24:20.146Z,99885.44
2023-01-02T23:26:51.140Z,99884.00
2023-01-02T23:29:20.237Z,99891.94
2023-01-02T23:31:49.807Z,99886.00
2023-01-02T23:34:20.883Z,99876.00
2023-01-02T23:36:48.649Z,99869.50
2023-01-02T23:39:19.601Z,99866.56
2023-01-02T23:41:48.359Z,99871.72
2023-01-02T23:44:19.709Z,99869.97
2023-01-02T23:46:47.633Z,99861.63
2023-01-02T23:49:16.555Z,99859.84
2023-01-02T23:51:44.992Z,99863.16
2023-01-02T23:54:14.834Z,99848.91
2023-01-02T23:56:45.662Z,99850.56
2023-01-02T23:59:19.404Z,99848.72
